首页
METAR-TAF:

METAR-TAF

机场 :

Edson, 艾伯塔, 加拿大

纬度: 53-35N, 经度: 116-28W, 海拔: 921米

当前天气观测

该预报发布于47分钟前的18:00 UTC
风速7节,风向南转西南,在西之间变化
温度 16°C
湿度 31%
气压 1012 hPa
能見度: 14.5公里
天空无云

METAR: CYET 021800Z AUTO 21007KT 190V260 9SM CLR 16/M01 A2989 RMK SLP135 DENSITY ALT 3800FT

时间: 12:47 (18:47 UTC)


TAF: 丢失

超过4000个机场的气象观测和天气预报(METAR&TAF报告)。

可查询的气象台以黄色和红色小点在地图上表示。

将鼠标移到小点上方,可查看气象台名称。

然后点击查看天气观测和预报。

如需切换地图:点击带黑十字的绿色按钮放大地图;点击带横线的绿色按钮缩小地图;或者点击绿色箭头查看邻近地区的地图。


METAR-TAF: